Time;durP1;ratioP1;P1;durP2;ratioP2;P2;SDS_P1;SDS_P2;PMS_P1;PMS_P2;Temp;Humidity;BMP_temperature;BMP_pressure;BME280_temperature;BME280_humidity;BME280_pressure;Samples;Min_cycle;Max_cycle;Signal;HPM_P1;HPM_P2
2021/06/10 00:02:43;;;;;;;4.77;4.27;;;;;;;13.53;95.49;101151.19;5079279;28;20216;-76
2021/06/10 00:05:32;;;;;;;4.60;4.10;;;;;;;13.55;94.64;101160.72;5095875;28;20214;-76
2021/06/10 00:08:18;;;;;;;6.93;4.70;;;;;;;13.61;94.82;101165.78;5090076;28;20201;-76
2021/06/10 00:11:04;;;;;;;5.20;4.37;;;;;;;13.51;94.07;101166.94;5093258;28;20230;-76
2021/06/10 00:13:51;;;;;;;5.13;3.90;;;;;;;13.54;93.85;101152.88;5092488;28;20743;-76
2021/06/10 00:16:37;;;;;;;9.57;4.23;;;;;;;13.63;95.12;101150.88;5089313;28;20620;-76
2021/06/10 00:19:23;;;;;;;4.93;4.03;;;;;;;13.63;94.69;101155.22;5095076;28;20265;-76
2021/06/10 00:22:11;;;;;;;5.30;4.17;;;;;;;13.58;94.58;101144.91;5082248;28;20726;-76
2021/06/10 00:24:57;;;;;;;4.87;3.90;;;;;;;13.54;94.14;101152.88;5097904;28;20246;-76
2021/06/10 00:27:43;;;;;;;5.00;4.00;;;;;;;13.53;94.52;101144.19;5094736;28;20699;-76
2021/06/10 00:30:31;;;;;;;4.47;4.07;;;;;;;13.55;94.59;101145.00;5098006;28;21023;-76
2021/06/10 00:33:17;;;;;;;4.63;4.17;;;;;;;13.47;94.10;101144.34;5094639;28;20916;-76
2021/06/10 00:36:04;;;;;;;4.70;4.30;;;;;;;13.52;95.78;101139.84;5100049;28;20239;-76
2021/06/10 00:38:52;;;;;;;4.77;4.27;;;;;;;13.42;93.85;101139.28;5097415;28;20310;-76
2021/06/10 00:41:38;;;;;;;4.63;4.10;;;;;;;13.44;94.31;101140.06;5095164;28;20342;-76
2021/06/10 00:44:24;;;;;;;4.40;4.00;;;;;;;13.49;95.79;101139.94;5097835;28;20241;-76
2021/06/10 00:47:11;;;;;;;6.33;4.43;;;;;;;13.42;94.66;101141.88;5093699;28;20687;-76
2021/06/10 00:49:57;;;;;;;5.20;4.33;;;;;;;13.39;94.79;101139.34;5099728;28;20692;-76
2021/06/10 00:52:46;;;;;;;5.20;4.43;;;;;;;13.27;94.10;101144.91;5101672;28;20653;-76
2021/06/10 00:55:33;;;;;;;5.37;4.30;;;;;;;13.23;95.72;101138.06;5082283;28;20843;-76
2021/06/10 00:58:20;;;;;;;4.50;4.10;;;;;;;13.25;95.53;101147.56;5080479;28;20296;-76
2021/06/10 01:01:08;;;;;;;4.53;3.93;;;;;;;13.18;95.53;101145.19;5102093;28;20253;-76
2021/06/10 01:03:54;;;;;;;4.40;4.00;;;;;;;13.17;95.60;101143.47;5098228;28;20205;-76
2021/06/10 01:06:50;;;;;;;4.67;3.80;;;;;;;13.24;96.56;101140.63;5094763;28;20214;-76
2021/06/10 01:10:04;;;;;;;4.33;3.93;;;;;;;13.21;96.25;101138.09;5099661;28;20211;-76
2021/06/10 01:12:57;;;;;;;4.70;3.90;;;;;;;13.31;97.35;101140.44;5099762;28;20217;-76
2021/06/10 01:15:46;;;;;;;6.47;4.50;;;;;;;13.14;95.08;101138.31;5095418;28;20214;-76
2021/06/10 01:18:33;;;;;;;4.90;4.40;;;;;;;13.01;94.73;101146.50;5087601;28;20205;-76
2021/06/10 01:21:22;;;;;;;6.17;4.13;;;;;;;13.08;98.08;101137.56;5083731;28;20237;-76
2021/06/10 01:24:23;;;;;;;5.50;4.60;;;;;;;13.09;96.78;101146.31;5097845;28;20641;-76
2021/06/10 01:27:21;;;;;;;6.23;4.40;;;;;;;13.05;95.55;101142.91;5098033;28;20627;-76
2021/06/10 01:30:11;;;;;;;4.70;4.20;;;;;;;13.12;95.86;101138.38;5096133;28;20685;-76
2021/06/10 01:33:00;;;;;;;4.57;4.10;;;;;;;13.04;95.82;101142.97;5097314;28;20227;-76
2021/06/10 01:35:52;;;;;;;6.23;4.30;;;;;;;13.03;95.94;101141.22;5099878;28;20198;-76
2021/06/10 01:38:39;;;;;;;4.57;4.10;;;;;;;12.98;95.75;101143.13;5095214;28;20248;-76
2021/06/10 01:41:27;;;;;;;4.30;3.90;;;;;;;13.06;96.17;101141.16;5091226;28;20233;-76
2021/06/10 01:44:16;;;;;;;4.40;4.00;;;;;;;12.98;96.35;101138.75;5094945;28;20247;-76
2021/06/10 01:47:03;;;;;;;5.50;4.10;;;;;;;13.03;97.33;101133.38;5095501;28;20201;-76
2021/06/10 01:49:50;;;;;;;4.70;4.20;;;;;;;13.04;97.52;101135.97;5096350;28;20634;-76
2021/06/10 01:52:39;;;;;;;5.57;4.30;;;;;;;12.90;96.70;101132.88;5082674;28;20209;-76
2021/06/10 01:55:28;;;;;;;4.47;4.07;;;;;;;12.63;95.21;101144.97;5099956;28;20206;-76
2021/06/10 01:58:15;;;;;;;4.57;3.97;;;;;;;12.60;96.95;101147.66;5096934;28;20258;-76
2021/06/10 02:01:06;;;;;;;4.63;4.13;;;;;;;12.56;97.78;101148.59;5096851;28;20394;-76
2021/06/10 02:03:54;;;;;;;4.47;3.83;;;;;;;12.63;99.26;101144.97;5098652;28;20206;-76
2021/06/10 02:06:41;;;;;;;4.47;4.07;;;;;;;12.75;99.17;101142.00;5096188;28;20680;-76
2021/06/10 02:09:28;;;;;;;5.07;4.10;;;;;;;12.76;98.11;101142.88;5100170;28;20198;-76
2021/06/10 02:12:15;;;;;;;5.50;4.13;;;;;;;12.79;98.82;101141.03;5095683;28;20721;-76
2021/06/10 02:15:03;;;;;;;5.57;4.50;;;;;;;12.80;99.28;101136.63;5096478;28;20212;-76
2021/06/10 02:17:51;;;;;;;5.10;4.23;;;;;;;12.75;98.22;101138.50;5098299;28;20567;-76
2021/06/10 02:20:37;;;;;;;4.77;4.37;;;;;;;12.61;97.71;101136.25;5095094;28;20278;-76
2021/06/10 02:23:23;;;;;;;5.60;4.23;;;;;;;12.47;97.07;101140.13;5095893;28;20296;-76
2021/06/10 02:26:10;;;;;;;4.60;4.20;;;;;;;12.44;98.16;101134.09;5075260;28;20693;-76
2021/06/10 02:28:57;;;;;;;5.23;4.27;;;;;;;12.49;98.34;101124.38;5098675;28;20201;-76
2021/06/10 02:31:43;;;;;;;4.60;4.20;;;;;;;12.63;100.00;101113.56;5094926;28;20840;-76
2021/06/10 02:34:31;;;;;;;4.90;4.40;;;;;;;12.68;99.27;101116.88;5091401;28;20773;-76
2021/06/10 02:37:19;;;;;;;4.80;4.37;;;;;;;12.38;96.46;101127.25;5096246;28;20201;-76
2021/06/10 02:40:10;;;;;;;4.63;4.17;;;;;;;12.51;99.23;101127.81;5095176;28;20205;-76
2021/06/10 02:42:57;;;;;;;4.47;4.03;;;;;;;12.66;100.00;101122.19;5095419;28;20213;-76
2021/06/10 02:45:46;;;;;;;4.73;4.07;;;;;;;12.74;100.00;101124.59;5095822;28;20210;-76
2021/06/10 02:48:33;;;;;;;5.87;4.70;;;;;;;12.67;100.00;101123.88;5095231;28;20265;-76
2021/06/10 02:51:23;;;;;;;5.00;4.50;;;;;;;12.58;98.46;101108.44;5098155;28;20331;-76
2021/06/10 02:54:12;;;;;;;7.80;4.60;;;;;;;12.57;98.83;101119.78;5096617;28;20335;-76
2021/06/10 02:56:59;;;;;;;5.03;4.33;;;;;;;12.77;100.00;101113.16;5099066;28;20289;-76
2021/06/10 02:59:46;;;;;;;5.20;4.27;;;;;;;12.77;99.53;101107.94;5097630;28;20294;-76
2021/06/10 03:02:34;;;;;;;4.93;4.33;;;;;;;12.69;99.12;101111.63;5095885;28;20709;-77
2021/06/10 03:05:25;;;;;;;7.87;4.60;;;;;;;12.65;98.34;101114.38;5090230;28;20252;-76
2021/06/10 03:08:14;;;;;;;5.53;4.93;;;;;;;12.69;98.95;101113.38;5081417;28;20217;-76
2021/06/10 03:11:05;;;;;;;5.03;4.50;;;;;;;12.57;97.92;101106.72;5091637;28;20533;-76
2021/06/10 03:13:52;;;;;;;4.87;4.37;;;;;;;12.77;99.30;101107.94;5097295;28;20201;-76
2021/06/10 03:16:41;;;;;;;5.00;4.50;;;;;;;12.72;98.95;101104.56;5094273;28;20250;-76
2021/06/10 03:19:27;;;;;;;4.77;4.17;;;;;;;12.64;97.13;101107.41;5092942;28;20818;-76
2021/06/10 03:22:14;;;;;;;5.67;4.30;;;;;;;12.73;97.87;101104.53;5097385;28;20220;-76
2021/06/10 03:25:05;;;;;;;7.97;4.80;;;;;;;12.80;98.68;101094.78;5096384;28;20212;-76
2021/06/10 03:27:52;;;;;;;4.90;4.40;;;;;;;12.66;96.71;101108.22;5100123;28;20661;-76
2021/06/10 03:30:38;;;;;;;5.90;4.63;;;;;;;12.82;98.62;101101.69;5093666;28;20336;-76
2021/06/10 03:33:26;;;;;;;5.97;5.03;;;;;;;12.81;97.13;101093.88;5092163;28;21114;-76
2021/06/10 03:36:12;;;;;;;7.13;4.60;;;;;;;12.85;97.42;101092.88;5092870;28;20227;-76
2021/06/10 03:39:00;;;;;;;6.20;4.50;;;;;;;12.84;96.73;101099.00;5093743;28;20220;-76
2021/06/10 03:41:48;;;;;;;5.87;4.77;;;;;;;12.83;98.44;101097.31;5098877;28;20303;-76
2021/06/10 03:44:35;;;;;;;7.30;4.20;;;;;;;12.96;98.44;101090.81;5093354;28;20259;-76
2021/06/10 03:47:21;;;;;;;5.47;4.57;;;;;;;12.98;97.50;101098.63;5096330;28;20208;-76
2021/06/10 03:50:08;;;;;;;5.20;4.70;;;;;;;13.00;97.67;101108.16;5096117;28;20200;-76
2021/06/10 03:52:55;;;;;;;8.77;4.80;;;;;;;13.14;99.73;101102.53;5098719;28;20215;-76
2021/06/10 03:55:41;;;;;;;7.07;5.10;;;;;;;13.18;98.30;101106.78;5098046;28;20219;-76
2021/06/10 03:58:29;;;;;;;6.43;5.20;;;;;;;13.27;98.93;101103.88;5097811;28;20451;-76
2021/06/10 04:01:15;;;;;;;5.33;4.83;;;;;;;13.46;97.80;101110.38;5094912;28;20222;-76
2021/06/10 04:04:02;;;;;;;7.60;4.97;;;;;;;13.60;96.78;101102.94;5092306;28;20295;-76
2021/06/10 04:06:48;;;;;;;7.03;4.93;;;;;;;13.82;95.69;101097.88;5100802;28;20213;-76
2021/06/10 04:09:34;;;;;;;5.80;5.30;;;;;;;14.08;95.20;101104.88;5094953;28;20236;-76
2021/06/10 04:12:21;;;;;;;6.87;5.47;;;;;;;14.37;94.50;101108.28;5097180;28;20230;-76
2021/06/10 04:15:09;;;;;;;6.43;5.70;;;;;;;14.58;93.58;101118.09;5096800;28;20264;-76
2021/06/10 04:17:55;;;;;;;5.60;5.00;;;;;;;14.79;92.36;101118.22;5094621;28;20264;-76
2021/06/10 04:20:41;;;;;;;6.97;5.50;;;;;;;15.04;90.87;101114.69;5084650;28;20217;-76
2021/06/10 04:23:29;;;;;;;6.03;4.87;;;;;;;15.24;90.61;101114.81;5094950;28;20231;-76
2021/06/10 04:26:16;;;;;;;6.80;5.03;;;;;;;15.48;89.16;101109.56;5096976;28;20815;-76
2021/06/10 04:29:03;;;;;;;5.60;5.10;;;;;;;15.75;88.88;101106.78;5098028;28;20205;-76
2021/06/10 04:31:50;;;;;;;5.70;5.20;;;;;;;16.01;87.35;101109.19;5095589;28;20763;-77
2021/06/10 04:34:36;;;;;;;11.17;5.10;;;;;;;16.21;86.10;101105.72;5102547;28;20201;-77
2021/06/10 04:37:23;;;;;;;8.40;5.03;;;;;;;16.38;85.27;101107.66;5096900;28;20286;-76
2021/06/10 04:40:11;;;;;;;5.50;4.87;;;;;;;16.58;84.53;101104.16;5098311;28;20208;-76
2021/06/10 04:42:57;;;;;;;5.57;4.90;;;;;;;16.78;82.59;101100.66;5096795;28;20223;-76
2021/06/10 04:45:43;;;;;;;5.50;4.97;;;;;;;16.96;82.68;101098.16;5098195;28;20212;-76
2021/06/10 04:48:32;;;;;;;5.57;4.80;;;;;;;17.06;81.70;101099.44;5095687;28;20199;-76
2021/06/10 04:51:18;;;;;;;6.43;5.07;;;;;;;17.27;82.95;101099.38;5099651;28;20254;-77
2021/06/10 04:54:05;;;;;;;8.53;5.23;;;;;;;17.51;81.40;101102.63;5101514;28;20752;-76
2021/06/10 04:56:51;;;;;;;6.73;5.10;;;;;;;17.75;81.48;101105.88;5098340;28;20205;-76
2021/06/10 04:59:37;;;;;;;5.77;4.53;;;;;;;17.91;79.59;101112.16;5096967;28;20197;-76
2021/06/10 05:02:24;;;;;;;4.97;4.47;;;;;;;17.97;78.79;101106.56;5098543;28;20457;-76
2021/06/10 05:05:12;;;;;;;6.07;4.60;;;;;;;18.10;79.19;101105.94;5092440;28;20198;-76
2021/06/10 05:07:59;;;;;;;5.67;5.03;;;;;;;18.02;77.26;101101.06;5093257;28;20206;-77
2021/06/10 05:10:45;;;;;;;5.50;4.97;;;;;;;17.82;78.11;101101.16;5099171;28;20689;-77
2021/06/10 05:13:31;;;;;;;5.10;4.60;;;;;;;17.83;77.93;101094.97;5091700;28;20214;-77
2021/06/10 05:16:17;;;;;;;5.83;4.93;;;;;;;18.17;77.03;101099.47;5095294;28;20292;-77
2021/06/10 05:19:04;;;;;;;6.43;4.90;;;;;;;18.24;76.50;101103.50;5092525;28;20198;-77
2021/06/10 05:21:52;;;;;;;6.53;5.17;;;;;;;18.16;78.50;101095.09;5098386;28;20220;-77
2021/06/10 05:24:40;;;;;;;5.07;4.50;;;;;;;18.13;77.46;101106.66;5087826;28;20245;-77
2021/06/10 05:27:26;;;;;;;5.57;5.07;;;;;;;18.02;77.25;101102.84;5100819;28;20194;-77
2021/06/10 05:30:13;;;;;;;6.33;5.17;;;;;;;18.08;78.45;101102.53;5095148;28;20209;-77
2021/06/10 05:33:00;;;;;;;5.90;5.30;;;;;;;18.21;77.09;101108.06;5099255;28;20197;-76
2021/06/10 05:35:46;;;;;;;6.23;4.93;;;;;;;18.60;76.90;101105.16;5098301;28;20659;-77
2021/06/10 05:38:33;;;;;;;5.57;4.87;;;;;;;18.61;75.66;101109.50;5096376;28;20706;-77
2021/06/10 05:41:20;;;;;;;5.63;5.10;;;;;;;18.70;75.40;101114.31;5091991;28;20242;-77
2021/06/10 05:44:06;;;;;;;6.57;4.50;;;;;;;18.74;75.93;101115.00;5100479;28;20784;-77
2021/06/10 05:46:53;;;;;;;5.53;5.03;;;;;;;18.72;75.45;101114.22;5090775;28;20200;-77
2021/06/10 05:49:40;;;;;;;5.33;4.83;;;;;;;18.84;74.83;101120.69;5091862;28;20200;-76
2021/06/10 05:52:26;;;;;;;7.37;5.00;;;;;;;18.84;75.33;101110.97;5096650;28;20317;-76
2021/06/10 05:55:14;;;;;;;6.40;5.20;;;;;;;18.88;75.42;101111.66;5090475;28;20292;-77
2021/06/10 05:58:00;;;;;;;6.97;4.87;;;;;;;18.89;75.01;101111.59;5097139;28;20212;-77
2021/06/10 06:00:46;;;;;;;6.30;5.00;;;;;;;18.85;75.19;101120.59;5096935;28;20221;-77
2021/06/10 06:03:32;;;;;;;5.93;4.77;;;;;;;18.97;75.96;101123.53;5099542;28;20197;-77
2021/06/10 06:06:19;;;;;;;7.27;5.23;;;;;;;18.97;73.91;101121.72;5093029;28;20208;-77
2021/06/10 06:09:08;;;;;;;6.23;5.17;;;;;;;19.08;75.58;101116.75;5097114;28;20296;-77
2021/06/10 06:11:56;;;;;;;5.73;5.20;;;;;;;19.25;74.50;101126.38;5091812;28;20233;-77
2021/06/10 06:14:45;;;;;;;5.80;5.20;;;;;;;19.34;73.26;101132.94;5093769;28;20198;-77
2021/06/10 06:17:31;;;;;;;5.87;5.27;;;;;;;19.37;74.02;101131.94;5081127;28;20807;-77
2021/06/10 06:20:19;;;;;;;6.07;5.47;;;;;;;19.30;72.58;101145.50;5094638;28;20204;-77
2021/06/10 06:23:06;;;;;;;5.97;5.37;;;;;;;19.42;74.39;101137.84;5097965;28;20254;-77
2021/06/10 06:25:52;;;;;;;5.47;4.97;;;;;;;19.51;72.27;101149.66;5094327;28;20319;-77
2021/06/10 06:28:40;;;;;;;5.00;4.50;;;;;;;19.41;69.61;101147.53;5095150;28;20205;-77
2021/06/10 06:31:27;;;;;;;5.83;5.13;;;;;;;19.40;70.68;101153.78;5092721;28;20228;-77
2021/06/10 06:34:13;;;;;;;6.07;5.07;;;;;;;19.33;69.18;101149.78;5097787;28;20741;-77
2021/06/10 06:36:59;;;;;;;6.17;5.27;;;;;;;19.23;68.12;101154.69;5094112;28;20205;-77
2021/06/10 06:39:45;;;;;;;5.40;4.90;;;;;;;19.14;68.13;101160.47;5090972;28;20236;-77
2021/06/10 06:42:33;;;;;;;5.93;5.30;;;;;;;19.12;68.83;101162.34;5096069;28;20759;-77
2021/06/10 06:45:20;;;;;;;5.73;5.23;;;;;;;19.05;68.03;101160.94;5095011;28;20205;-77
2021/06/10 06:48:07;;;;;;;5.67;5.17;;;;;;;19.04;69.73;101169.81;5097416;28;20208;-77
2021/06/10 06:50:53;;;;;;;5.87;5.20;;;;;;;18.91;69.61;101173.13;5097393;28;20220;-77
2021/06/10 06:53:40;;;;;;;5.87;5.37;;;;;;;18.86;70.09;101172.50;5095480;28;20603;-76
2021/06/10 06:56:26;;;;;;;5.90;5.40;;;;;;;18.84;70.70;101173.53;5089056;28;20275;-76
2021/06/10 06:59:12;;;;;;;6.93;5.40;;;;;;;18.78;70.60;101166.72;5094457;28;20212;-77
2021/06/10 07:02:00;;;;;;;7.10;5.30;;;;;;;18.75;72.42;101158.97;5096069;28;20636;-77
2021/06/10 07:04:46;;;;;;;6.57;5.63;;;;;;;18.78;71.04;101169.38;5081571;28;20206;-77
2021/06/10 07:07:32;;;;;;;6.20;5.60;;;;;;;18.83;72.42;101162.09;5096797;28;20874;-77
2021/06/10 07:10:19;;;;;;;6.20;5.60;;;;;;;18.87;70.39;101166.28;5076253;28;20817;-77
2021/06/10 07:13:05;;;;;;;6.60;5.47;;;;;;;18.96;71.85;101145.59;5096023;28;20729;-77
2021/06/10 07:15:52;;;;;;;6.27;5.67;;;;;;;18.95;75.41;101152.66;5095754;28;20209;-77
2021/06/10 07:18:40;;;;;;;9.43;5.40;;;;;;;18.96;75.11;101159.69;5094022;28;20233;-77
2021/06/10 07:21:27;;;;;;;8.80;6.17;;;;;;;19.07;74.43;101167.88;5092396;28;20638;-77
2021/06/10 07:24:13;;;;;;;6.47;5.83;;;;;;;19.17;73.21;101185.88;5094150;28;20631;-77
2021/06/10 07:27:00;;;;;;;6.60;5.90;;;;;;;19.34;72.08;101175.25;5095479;28;20282;-76
2021/06/10 07:29:47;;;;;;;7.40;6.10;;;;;;;19.37;72.09;101187.47;5095018;28;20267;-77
2021/06/10 07:32:33;;;;;;;7.10;6.40;;;;;;;19.49;72.77;101178.88;5100343;28;20233;-76
2021/06/10 07:35:22;;;;;;;7.93;6.40;;;;;;;19.54;70.85;101194.47;5094590;28;20189;-76
2021/06/10 07:38:09;;;;;;;6.17;5.57;;;;;;;19.62;73.06;101182.53;5090697;28;20197;-77
2021/06/10 07:40:56;;;;;;;6.63;5.77;;;;;;;19.65;72.58;101176.22;5092884;28;20220;-76
2021/06/10 07:43:42;;;;;;;6.93;6.00;;;;;;;19.66;71.91;101193.78;5091673;28;20213;-76
2021/06/10 07:46:28;;;;;;;6.87;6.20;;;;;;;19.73;72.00;101195.16;5093200;28;20241;-76
2021/06/10 07:49:14;;;;;;;7.33;6.63;;;;;;;19.73;71.40;101195.16;5089786;28;20209;-77
2021/06/10 07:52:03;;;;;;;7.13;6.43;;;;;;;19.77;71.31;101190.56;5095727;28;20257;-77
2021/06/10 07:54:49;;;;;;;8.33;6.93;;;;;;;19.90;70.07;101198.69;5087535;28;20754;-77
2021/06/10 07:57:36;;;;;;;8.30;6.30;;;;;;;20.02;71.67;101195.38;5096802;28;20201;-76
2021/06/10 08:00:22;;;;;;;7.77;6.73;;;;;;;20.40;69.93;101194.94;5101175;28;20216;-76
2021/06/10 08:03:08;;;;;;;8.73;7.40;;;;;;;20.75;67.94;101202.63;5081994;28;20205;-77
2021/06/10 08:05:56;;;;;;;9.20;7.20;;;;;;;20.77;69.85;101191.00;5094880;28;20240;-76
2021/06/10 08:08:43;;;;;;;9.37;7.73;;;;;;;20.79;66.69;101197.06;5099997;28;20200;-77
2021/06/10 08:11:30;;;;;;;8.53;7.60;;;;;;;20.97;65.95;101202.19;5101651;28;20296;-77
2021/06/10 08:14:16;;;;;;;8.03;7.23;;;;;;;21.23;66.35;101207.69;5096840;28;20256;-77
2021/06/10 08:17:03;;;;;;;10.03;8.20;;;;;;;21.50;65.24;101205.16;5096718;28;21038;-76
2021/06/10 08:19:49;;;;;;;9.03;7.37;;;;;;;21.72;63.35;101205.50;5097779;28;20545;-77
2021/06/10 08:22:35;;;;;;;8.67;6.83;;;;;;;21.88;68.52;101200.06;5094676;28;20228;-77
2021/06/10 08:25:23;;;;;;;8.40;7.07;;;;;;;22.00;65.20;101203.69;5092133;28;20193;-77
2021/06/10 08:28:10;;;;;;;8.80;7.43;;;;;;;22.20;64.47;101197.09;5100362;28;20870;-77
2021/06/10 08:30:57;;;;;;;8.27;7.47;;;;;;;22.38;66.25;101208.34;5096971;28;20314;-77
2021/06/10 08:33:43;;;;;;;8.33;6.70;;;;;;;22.44;61.32;101204.41;5094691;28;20572;-76
2021/06/10 08:36:30;;;;;;;8.57;7.10;;;;;;;22.59;59.69;101219.31;5085081;28;20210;-76
2021/06/10 08:39:17;;;;;;;7.87;7.07;;;;;;;22.80;59.93;101211.69;5092140;28;20209;-76
2021/06/10 08:42:05;;;;;;;8.17;7.37;;;;;;;22.81;59.15;101207.22;5083190;28;20309;-76
2021/06/10 08:44:53;;;;;;;9.17;7.30;;;;;;;23.00;58.84;101205.00;5099672;28;20209;-76
2021/06/10 08:47:40;;;;;;;8.27;6.70;;;;;;;23.21;61.19;101201.84;5093644;28;20243;-77
2021/06/10 08:50:27;;;;;;;7.77;6.53;;;;;;;23.36;62.99;101197.22;5095431;28;20579;-77
2021/06/10 08:53:15;;;;;;;7.67;6.30;;;;;;;23.48;58.10;101199.00;5098637;28;20387;-77
2021/06/10 08:56:01;;;;;;;6.40;5.80;;;;;;;23.69;58.89;101190.44;5098909;28;20563;-77
2021/06/10 08:58:49;;;;;;;6.60;5.93;;;;;;;23.96;59.67;101190.28;5097952;28;20575;-77
2021/06/10 09:01:35;;;;;;;8.70;5.80;;;;;;;23.87;60.77;101177.63;5098863;28;20725;-77
2021/06/10 09:04:22;;;;;;;6.13;5.53;;;;;;;23.99;60.56;101187.38;5100602;28;20305;-77
2021/06/10 09:07:10;;;;;;;5.40;4.90;;;;;;;24.18;57.11;101186.88;5098125;28;20662;-77
2021/06/10 09:09:57;;;;;;;5.57;5.07;;;;;;;24.34;55.06;101190.09;5095265;28;21009;-77
2021/06/10 09:12:48;;;;;;;5.88;4.90;;;;;;;24.32;54.90;101186.66;5096036;28;20253;-77
2021/06/10 09:15:38;;;;;;;5.70;5.20;;;;;;;24.41;55.78;101176.28;5096802;28;20275;-77
2021/06/10 09:18:28;;;;;;;5.43;4.93;;;;;;;24.58;56.31;101170.56;5098281;28;20193;-77
2021/06/10 09:21:26;;;;;;;5.70;4.57;;;;;;;24.76;56.90;101170.94;5095142;28;20313;-77
2021/06/10 09:24:18;;;;;;;4.25;3.85;;;;;;;24.97;50.72;101183.59;5097850;28;20270;-77
2021/06/10 09:27:07;;;;;;;4.40;4.00;;;;;;;24.73;49.36;101176.50;5096560;28;20581;-77
2021/06/10 09:29:53;;;;;;;6.40;4.55;;;;;;;24.90;53.24;101173.38;5098823;28;20202;-77
2021/06/10 09:32:46;;;;;;;4.25;3.92;;;;;;;24.90;47.34;101181.38;5095225;28;20225;-77
2021/06/10 09:35:35;;;;;;;4.80;4.30;;;;;;;25.14;49.25;101169.78;5096217;28;20202;-77
2021/06/10 09:38:23;;;;;;;4.10;3.80;;;;;;;25.19;49.61;101170.25;5097139;28;20643;-77
2021/06/10 09:41:10;;;;;;;4.50;4.10;;;;;;;25.27;47.44;101175.84;5090360;28;20229;-77
2021/06/10 09:43:57;;;;;;;4.53;3.95;;;;;;;25.59;47.26;101176.91;5099085;28;20562;-77
2021/06/10 09:47:01;;;;;;;4.28;3.88;;;;;;;26.01;51.91;101161.03;5103125;28;20583;-77
2021/06/10 09:49:48;;;;;;;4.40;3.42;;;;;;;26.19;49.88;101172.00;5095976;28;20204;-77
2021/06/10 09:52:44;;;;;;;3.75;3.20;;;;;;;26.43;45.66;101175.28;5102304;28;20239;-77
2021/06/10 09:55:43;;;;;;;2.40;2.20;;;;;;;26.56;42.05;101188.47;5102104;28;20260;-77
2021/06/10 09:58:34;;;;;;;2.40;2.15;;;;;;;26.30;43.96;101171.13;5097683;28;20280;-77
2021/06/10 10:01:22;;;;;;;2.70;2.50;;;;;;;26.15;44.77;101173.25;5102686;28;20224;-77
2021/06/10 10:04:08;;;;;;;1.90;1.80;;;;;;;26.24;41.32;101185.81;5095317;28;20201;-77
2021/06/10 10:06:55;;;;;;;2.13;1.90;;;;;;;26.29;41.24;101182.78;5102925;28;20221;-77
2021/06/10 10:09:42;;;;;;;4.15;2.00;;;;;;;26.52;38.65;101180.84;5100420;28;20697;-77
2021/06/10 10:12:30;;;;;;;2.75;2.15;;;;;;;26.55;38.80;101181.41;5098011;28;21476;-77
2021/06/10 10:15:17;;;;;;;2.88;2.08;;;;;;;26.75;39.52;101179.72;5099186;28;20198;-77
2021/06/10 10:18:05;;;;;;;2.40;2.20;;;;;;;26.69;39.80;101171.41;5096168;28;20340;-77
2021/06/10 10:20:51;;;;;;;2.60;2.13;;;;;;;26.80;41.60;101160.63;5099777;28;20229;-77
2021/06/10 10:23:39;;;;;;;2.03;1.85;;;;;;;27.05;42.41;101159.31;5097963;28;20202;-77
2021/06/10 10:26:25;;;;;;;2.40;2.20;;;;;;;27.35;42.45;101160.31;5092473;28;20208;-77
2021/06/10 10:29:12;;;;;;;2.60;2.40;;;;;;;27.55;40.93;101155.88;5096427;28;20295;-78
2021/06/10 10:31:58;;;;;;;4.45;3.03;;;;;;;27.22;40.01;101163.19;5095588;28;20229;-77
2021/06/10 10:34:45;;;;;;;3.17;2.88;;;;;;;26.95;40.71;101156.63;5092641;28;20626;-77
2021/06/10 10:37:31;;;;;;;2.90;2.70;;;;;;;27.02;41.20;101152.44;5094838;28;20190;-77
2021/06/10 10:40:22;;;;;;;4.75;3.10;;;;;;;27.14;43.56;101142.47;5095896;28;20287;-77
2021/06/10 10:43:11;;;;;;;3.20;2.90;;;;;;;27.30;43.42;101135.78;5091520;28;20647;-77
2021/06/10 10:46:09;;;;;;;3.75;3.25;;;;;;;27.25;39.48;101138.00;5093490;28;20526;-77
2021/06/10 10:48:59;;;;;;;3.83;3.53;;;;;;;27.50;39.80;101136.69;5090743;28;20690;-77
2021/06/10 10:51:45;;;;;;;3.15;2.95;;;;;;;27.80;42.37;101133.06;5094288;28;20221;-78
2021/06/10 10:54:33;;;;;;;4.00;3.50;;;;;;;27.44;42.00;101121.16;5099648;28;20232;-78
2021/06/10 10:57:39;;;;;;;4.03;3.20;;;;;;;27.13;42.45;101123.88;5094788;28;20209;-78
2021/06/10 11:00:54;;;;;;;3.80;3.40;;;;;;;26.99;42.27;101130.44;5094302;28;20572;-78
2021/06/10 11:03:43;;;;;;;3.25;2.95;;;;;;;26.74;42.06;101134.44;5060751;28;20301;-77
2021/06/10 11:06:35;;;;;;;3.47;3.17;;;;;;;26.35;43.03;101131.47;5096658;28;20212;-78
2021/06/10 11:09:24;;;;;;;3.70;3.40;;;;;;;26.29;42.07;101137.34;5090909;28;20282;-77
2021/06/10 11:12:11;;;;;;;3.50;3.28;;;;;;;26.14;41.50;101137.66;5095497;28;20223;-78
2021/06/10 11:15:01;;;;;;;3.47;3.28;;;;;;;26.11;42.70;101127.22;5096507;28;20209;-78
2021/06/10 11:17:47;;;;;;;3.72;3.42;;;;;;;26.19;44.19;101119.44;5098384;28;20197;-77
2021/06/10 11:20:41;;;;;;;3.22;2.92;;;;;;;26.39;41.75;101119.56;5095559;28;20243;-77
2021/06/10 11:23:28;;;;;;;3.25;3.00;;;;;;;26.77;41.54;101120.75;5099833;28;20212;-77
2021/06/10 11:26:18;;;;;;;3.58;3.28;;;;;;;27.02;42.57;101109.63;5097751;28;21008;-77
2021/06/10 11:29:05;;;;;;;3.53;3.22;;;;;;;26.87;43.05;101110.97;5092848;28;20209;-78
2021/06/10 11:32:29;;;;;;;3.75;3.45;;;;;;;26.60;44.77;101107.00;5100999;28;20962;-78
2021/06/10 11:35:26;;;;;;;3.50;3.20;;;;;;;26.29;44.08;101108.78;5090829;28;20247;-78
2021/06/10 11:38:16;;;;;;;3.92;3.53;;;;;;;26.05;44.52;101103.69;5091355;28;20205;-79
2021/06/10 11:41:05;;;;;;;5.15;3.38;;;;;;;25.95;42.59;101106.31;5099752;28;20220;-77
2021/06/10 11:43:55;;;;;;;3.38;3.08;;;;;;;25.87;44.32;101108.72;5097484;28;20284;-77
2021/06/10 11:46:42;;;;;;;3.63;3.33;;;;;;;25.76;47.46;101103.44;5090994;28;20201;-78
2021/06/10 11:49:33;;;;;;;3.65;3.35;;;;;;;25.94;42.95;101112.59;5100063;28;20205;-77
2021/06/10 11:52:19;;;;;;;4.25;3.30;;;;;;;26.27;43.25;101102.72;5094776;28;20276;-78
2021/06/10 11:55:08;;;;;;;3.95;3.60;;;;;;;26.69;41.05;101107.22;5094494;28;20237;-77
2021/06/10 11:58:00;;;;;;;3.70;3.40;;;;;;;27.04;41.62;101095.28;5092696;28;20202;-77
2021/06/10 12:00:47;;;;;;;4.90;3.70;;;;;;;27.31;40.10;101092.81;5093079;28;20225;-77
2021/06/10 12:03:34;;;;;;;3.97;3.67;;;;;;;27.43;40.22;101087.34;5100541;28;20208;-77
2021/06/10 12:06:21;;;;;;;4.40;4.00;;;;;;;26.97;39.29;101078.91;5098277;28;20231;-77
2021/06/10 12:09:12;;;;;;;5.38;3.60;;;;;;;26.71;43.98;101078.53;5093975;28;20193;-78
2021/06/10 12:11:58;;;;;;;4.18;3.80;;;;;;;26.42;42.59;101076.53;5098102;28;20232;-78
2021/06/10 12:14:44;;;;;;;3.72;3.42;;;;;;;26.46;42.15;101077.94;5092062;28;20250;-78
2021/06/10 12:17:48;;;;;;;3.83;3.50;;;;;;;26.51;41.08;101077.53;5098603;28;20197;-78
2021/06/10 12:20:36;;;;;;;3.92;3.63;;;;;;;26.22;42.45;101073.72;5097064;28;20221;-77
2021/06/10 12:23:26;;;;;;;3.85;3.55;;;;;;;26.26;42.88;101071.63;5098717;28;20197;-78
2021/06/10 12:26:14;;;;;;;4.00;3.42;;;;;;;26.62;40.55;101073.00;5092443;28;20780;-78
2021/06/10 12:29:02;;;;;;;3.13;2.92;;;;;;;26.89;39.74;101065.34;5096537;28;20204;-77
2021/06/10 12:31:49;;;;;;;3.53;3.22;;;;;;;27.23;40.50;101060.53;5095672;28;20233;-77
2021/06/10 12:34:35;;;;;;;4.68;3.63;;;;;;;27.48;40.94;101061.84;5097755;28;20304;-77
2021/06/10 12:37:21;;;;;;;4.00;3.70;;;;;;;27.74;36.89;101061.31;5098310;28;20679;-77
2021/06/10 12:40:10;;;;;;;3.92;3.53;;;;;;;27.71;38.00;101065.09;5093646;28;20284;-77
2021/06/10 12:43:08;;;;;;;3.88;3.58;;;;;;;27.29;39.81;101054.63;5093539;28;20283;-78
2021/06/10 12:46:02;;;;;;;3.88;3.47;;;;;;;27.09;40.35;101050.19;5100168;28;20207;-77
2021/06/10 12:48:57;;;;;;;4.05;3.75;;;;;;;26.71;41.40;101047.28;5099791;28;20209;-78
2021/06/10 12:51:45;;;;;;;4.20;3.90;;;;;;;26.42;44.63;101041.78;5104940;28;20233;-77
2021/06/10 12:54:33;;;;;;;4.43;4.03;;;;;;;26.14;44.16;101041.47;5100687;28;20284;-77
2021/06/10 12:57:21;;;;;;;4.60;4.20;;;;;;;25.98;46.38;101041.94;5095651;28;20208;-78
2021/06/10 13:00:10;;;;;;;5.60;4.40;;;;;;;25.56;53.68;101036.53;5097370;28;20608;-77
2021/06/10 13:03:03;;;;;;;5.28;4.78;;;;;;;24.74;58.79;101027.09;5099084;28;20781;-77